Station: EBLB - 30/03/2020 15:55Z (il y a 22 minutes)
EBLB 301555Z AUTO 36008KT 9999 BKN035/// 03/M05 Q1025 BLU
Vent du 360º - 8 kt
Visibilité > 10 km
Ciel 75% couvert à 3500 pieds
Température: +03ºC - Point de rosée: -05ºC - QNH: 1025 hPa
Code couleur militaire: BLU (conditions VMC)